CheckWX is a tool to help pilots better visualize weather data.  It is not intended as a substitute for an official pre-flight weather briefing.

18:38:58 UTC

KANE METAR
Anoka County-Blaine (Janes Field) Airport
Minneapolis, Minnesota, USA
Current

54 mins ago

KANE 261745Z 19011G14KT 10SM BKN250 08/M03 A3035
Observed
Mar-26 @ 17:45 UTC
Wind
  • 190° at 11 KTS
  • Gusting to 14 KTS
Visibility
10 SM
Flight Rules
VFR
Cloud Levels
  • Broken at 25,000' AGL
Temperature
C / 46°F
Dewpoint
-3°C / 27°F
Humidity
46%
Altimeter
30.35" Hg
Pressure
1027.82 hPa
Previous

2 hours ago

KANE 261645Z 21006KT 10SM BKN250 07/M03 A3037
Observed
Mar-26 @ 16:45 UTC
Wind
  • 210° at 6 KTS
Visibility
10 SM
Flight Rules
VFR
Cloud Levels
  • Broken at 25,000' AGL
Temperature
C / 45°F
Dewpoint
-3°C / 27°F
Humidity
49%
Altimeter
30.37" Hg
Pressure
1028.42 hPa
Previous

3 hours ago

KANE 261545Z 19008KT 10SM BKN250 06/M03 A3037
Observed
Mar-26 @ 15:45 UTC
Wind
  • 190° at 8 KTS
Visibility
10 SM
Flight Rules
VFR
Cloud Levels
  • Broken at 25,000' AGL
Temperature
C / 43°F
Dewpoint
-3°C / 27°F
Humidity
53%
Altimeter
30.37" Hg
Pressure
1028.42 hPa